Time;durP1;ratioP1;P1;durP2;ratioP2;P2;SDS_P1;SDS_P2;PMS_P1;PMS_P2;Temp;Humidity;BMP_temperature;BMP_pressure;BME280_temperature;BME280_humidity;BME280_pressure;Samples;Min_cycle;Max_cycle;Signal;HPM_P1;HPM_P2
2022/03/13 00:01:11;;;;;;;26.13;14.40;;;;;;;;;;5018206;28;20488;-87
2022/03/13 00:03:38;;;;;;;23.77;13.93;;;;;;;;;;5020679;28;20459;-89
2022/03/13 00:06:08;;;;;;;22.80;14.47;;;;;;;;;;5016614;28;20452;-91
2022/03/13 00:08:38;;;;;;;26.50;15.00;;;;;;;;;;5016734;28;20514;-92
2022/03/13 00:11:08;;;;;;;24.40;14.47;;;1.80;99.90;;;;;;5013614;28;20496;-89
2022/03/13 00:13:38;;;;;;;26.50;16.10;;;2.00;99.90;;;;;;4996993;28;20548;-89
2022/03/13 00:16:08;;;;;;;23.00;14.87;;;2.00;99.90;;;;;;4996946;28;20529;-91
2022/03/13 00:18:36;;;;;;;21.60;14.77;;;2.00;99.90;;;;;;4996835;28;20452;-89
2022/03/13 00:21:04;;;;;;;31.40;16.13;;;;;;;;;;4996383;28;20797;-91
2022/03/13 00:23:31;;;;;;;24.67;15.87;;;;;;;;;;4997112;28;20477;-90
2022/03/13 00:25:58;;;;;;;22.97;14.43;;;;;;;;;;4996246;28;20455;-91
2022/03/13 00:28:25;;;;;;;21.40;14.30;;;;;;;;;;4997456;28;20971;-89
2022/03/13 00:30:52;;;;;;;20.13;14.20;;;;;;;;;;4996768;28;20503;-92
2022/03/13 00:33:21;;;;;;;24.27;15.30;;;;;;;;;;4996745;28;20479;-88
2022/03/13 00:35:49;;;;;;;27.60;16.00;;;;;;;;;;4996548;28;20522;-88
2022/03/13 00:38:16;;;;;;;24.67;16.50;;;;;;;;;;4996774;28;20816;-88
2022/03/13 00:40:48;;;;;;;29.53;15.70;;;;;;;;;;4995468;28;20477;-89
2022/03/13 00:43:15;;;;;;;27.90;16.00;;;;;;;;;;4996144;28;20503;-88
2022/03/13 00:45:42;;;;;;;19.73;13.43;;;;;;;;;;4996356;28;20452;-89
2022/03/13 00:48:09;;;;;;;29.20;16.60;;;;;;;;;;4996465;28;20463;-88
2022/03/13 00:50:38;;;;;;;21.10;15.00;;;;;;;;;;4996248;28;20493;-89
2022/03/13 00:53:05;;;;;;;21.80;13.83;;;;;;;;;;4996255;28;20494;-90
2022/03/13 00:55:33;;;;;;;25.17;14.67;;;;;;;;;;4996150;28;20484;-88
2022/03/13 00:58:00;;;;;;;22.80;13.80;;;;;;;;;;4996216;28;20453;-91
2022/03/13 01:00:27;;;;;;;28.83;14.33;;;1.40;99.90;;;;;;4997702;28;20453;-90
2022/03/13 01:02:54;;;;;;;19.70;13.10;;;;;;;;;;4996629;28;20457;-90
2022/03/13 01:05:23;;;;;;;20.30;12.73;;;1.40;99.90;;;;;;4995715;28;20456;-89
2022/03/13 01:07:52;;;;;;;19.63;12.70;;;;;;;;;;4997228;28;20449;-88
2022/03/13 01:10:19;;;;;;;22.83;13.10;;;;;;;;;;4996091;28;20496;-88
2022/03/13 01:12:47;;;;;;;23.20;13.80;;;;;;;;;;4995260;28;20464;-88
2022/03/13 01:15:14;;;;;;;28.53;14.87;;;;;;;;;;4995673;28;20441;-88
2022/03/13 01:17:42;;;;;;;21.67;13.67;;;;;;;;;;4995674;28;20453;-88
2022/03/13 01:20:16;;;;;;;22.60;14.17;;;1.40;99.90;;;;;;4995382;28;20803;-88
2022/03/13 01:22:43;;;;;;;20.50;13.33;;;;;;;;;;4995830;28;20449;-89
2022/03/13 01:25:12;;;;;;;24.93;15.03;;;;;;;;;;4995521;28;20510;-91
2022/03/13 01:27:39;;;;;;;24.07;14.27;;;;;;;;;;4994971;28;20794;-88
2022/03/13 01:30:07;;;;;;;25.03;15.00;;;3.10;99.90;;;;;;4995708;28;20493;-88
2022/03/13 01:32:34;;;;;;;22.37;12.70;;;;;;;;;;4994552;28;20449;-88
2022/03/13 01:35:01;;;;;;;21.50;12.73;;;;;;;;;;4995379;28;20460;-90
2022/03/13 01:37:31;;;;;;;18.13;12.30;;;1.10;99.90;;;;;;4995261;28;20972;-88
2022/03/13 01:40:00;;;;;;;25.60;13.30;;;1.10;99.90;;;;;;4995326;28;20832;-89
2022/03/13 01:42:28;;;;;;;22.60;13.37;;;;;;;;;;4996670;28;20462;-88
2022/03/13 01:44:56;;;;;;;22.80;11.77;;;;;;;;;;4995451;28;20453;-88
2022/03/13 01:47:24;;;;;;;20.80;12.47;;;;;;;;;;4995105;28;20477;-88
2022/03/13 01:49:51;;;;;;;25.83;13.50;;;;;;;;;;4994994;28;20520;-90
2022/03/13 01:52:18;;;;;;;24.73;12.30;;;;;;;;;;4994942;28;20481;-88
2022/03/13 01:54:46;;;;;;;21.23;12.47;;;;;;;;;;4994967;28;20457;-86
2022/03/13 01:57:17;;;;;;;19.70;12.23;;;0.90;99.90;;;;;;4994033;28;20458;-88
2022/03/13 01:59:46;;;;;;;23.63;11.90;;;;;;;;;;4994861;28;20460;-89
2022/03/13 02:02:13;;;;;;;15.73;10.17;;;;;;;;;;4995041;28;20442;-86
2022/03/13 02:04:41;;;;;;;16.33;10.90;;;;;;;;;;4993543;28;20882;-90
2022/03/13 02:07:08;;;;;;;19.87;12.07;;;;;;;;;;4994899;28;20577;-89
2022/03/13 02:09:35;;;;;;;21.20;11.60;;;;;;;;;;4994581;28;20445;-90
2022/03/13 02:12:04;;;;;;;21.03;11.60;;;0.90;99.90;;;;;;4993726;28;20469;-88
2022/03/13 02:14:31;;;;;;;18.97;11.50;;;;;;;;;;4994538;28;20488;-89
2022/03/13 02:16:59;;;;;;;17.63;9.70;;;;;;;;;;4994778;28;20461;-90
2022/03/13 02:19:27;;;;;;;18.83;10.60;;;;;;;;;;4994551;28;20445;-88
2022/03/13 02:21:55;;;;;;;17.90;11.17;;;;;;;;;;4994548;28;20472;-89
2022/03/13 02:24:26;;;;;;;17.93;10.80;;;0.80;99.90;;;;;;4994206;28;20457;-87
2022/03/13 02:27:01;;;;;;;21.33;11.30;;;0.80;99.90;;;;;;4993640;28;20441;-88
2022/03/13 02:29:28;;;;;;;23.13;11.03;;;;;;;;;;4994238;28;20453;-92
2022/03/13 02:31:56;;;;;;;17.20;9.50;;;0.80;99.90;;;;;;4996520;28;20493;-89
2022/03/13 02:34:24;;;;;;;18.43;10.40;;;0.80;99.90;;;;;;4993975;28;20937;-87
2022/03/13 02:37:01;;;;;;;16.30;10.20;;;0.80;99.90;;;;;;4994931;28;20464;-86
2022/03/13 02:39:35;;;;;;;19.03;10.40;;;0.70;99.90;;;;;;5003575;28;20488;-87
2022/03/13 02:42:02;;;;;;;19.40;11.00;;;;;;;;;;4997840;28;20453;-90
2022/03/13 02:44:29;;;;;;;16.10;10.50;;;;;;;;;;4994456;28;20476;-88
2022/03/13 02:47:02;;;;;;;17.30;10.80;;;0.60;99.90;;;;;;4994231;28;20445;-88
2022/03/13 02:49:31;;;;;;;20.80;11.53;;;0.60;99.90;;;;;;4994407;28;20461;-89
2022/03/13 02:52:00;;;;;;;18.20;10.20;;;0.60;99.90;;;;;;4995387;28;20500;-89
2022/03/13 02:54:27;;;;;;;16.70;10.27;;;;;;;;;;4994292;28;20809;-88
2022/03/13 02:56:56;;;;;;;17.40;10.60;;;0.60;99.90;;;;;;4993166;28;20457;-89
2022/03/13 02:59:23;;;;;;;20.57;11.27;;;;;;;;;;4996672;28;20437;-87
2022/03/13 03:01:50;;;;;;;19.67;10.80;;;;;;;;;;4993955;28;20888;-89
2022/03/13 03:04:18;;;;;;;26.13;12.17;;;;;;;;;;4993991;28;20461;-88
2022/03/13 03:06:59;;;;;;;20.57;11.63;;;0.50;99.90;;;;;;4993998;28;20444;-89
2022/03/13 03:09:28;;;;;;;17.47;11.30;;;0.40;99.90;;;;;;4994141;28;20473;-88
2022/03/13 03:12:00;;;;;;;20.20;13.00;;;0.40;99.90;;;;;;4992889;28;20495;-89
2022/03/13 03:14:27;;;;;;;19.70;12.20;;;;;;;;;;4993836;28;20993;-88
2022/03/13 03:16:55;;;;;;;23.73;12.60;;;;;;;;;;4994218;28;20468;-88
2022/03/13 03:19:22;;;;;;;19.17;12.50;;;;;;;;;;4994215;28;20465;-91
2022/03/13 03:21:52;;;;;;;22.37;13.30;;;;;;;;;;4993802;28;20825;-90
2022/03/13 03:24:20;;;;;;;18.43;12.47;;;0.40;99.90;;;;;;4993767;28;20811;-87
2022/03/13 03:26:48;;;;;;;19.20;12.63;;;;;;;;;;4992944;28;20449;-88
2022/03/13 03:29:16;;;;;;;18.20;10.97;;;;;;;;;;4994030;28;20456;-87
2022/03/13 03:31:45;;;;;;;20.03;11.40;;;0.50;99.90;;;;;;4993720;28;20500;-88
2022/03/13 03:34:14;;;;;;;17.50;11.17;;;0.40;99.90;;;;;;4993865;28;20449;-89
2022/03/13 03:36:42;;;;;;;18.80;10.73;;;0.40;99.90;;;;;;4993880;28;20449;-88
2022/03/13 03:39:10;;;;;;;20.60;10.60;;;;;;;;;;4993401;28;20469;-87
2022/03/13 03:41:37;;;;;;;21.60;11.07;;;;;;;;;;4995095;28;20452;-88
2022/03/13 03:44:04;;;;;;;19.03;11.17;;;;;;;;;;4994071;28;20454;-87
2022/03/13 03:46:32;;;;;;;18.50;11.57;;;0.40;99.90;;;;;;4993803;28;20446;-88
2022/03/13 03:48:59;;;;;;;20.20;11.37;;;;;;;;;;4994026;28;20468;-87
2022/03/13 03:51:26;;;;;;;20.80;12.13;;;;;;;;;;4993696;28;20505;-87
2022/03/13 03:53:53;;;;;;;17.40;10.07;;;;;;;;;;4994198;28;20442;-88
2022/03/13 03:56:20;;;;;;;17.07;11.50;;;;;;;;;;4996106;28;20445;-87
2022/03/13 03:58:48;;;;;;;20.43;12.07;;;;;;;;;;4997097;28;20468;-88
2022/03/13 04:01:15;;;;;;;22.60;11.47;;;;;;;;;;4996870;28;20896;-89
2022/03/13 04:03:44;;;;;;;20.50;11.20;;;0.00;99.90;;;;;;4996810;28;20457;-88
2022/03/13 04:06:11;;;;;;;17.10;11.30;;;;;;;;;;4998404;28;20454;-90
2022/03/13 04:08:38;;;;;;;16.67;10.13;;;;;;;;;;4997349;28;20453;-88
2022/03/13 04:11:08;;;;;;;19.50;11.50;;;;;;;;;;4994704;28;20493;-88
2022/03/13 04:13:37;;;;;;;20.00;11.47;;;;;;;;;;4996762;28;20433;-89
2022/03/13 04:16:05;;;;;;;23.33;11.40;;;;;;;;;;4997307;28;20449;-89
2022/03/13 04:18:32;;;;;;;14.97;10.50;;;;;;;;;;4996792;28;20452;-91
2022/03/13 04:21:04;;;;;;;21.53;11.03;;;;;;;;;;4996431;28;20477;-88
2022/03/13 04:23:31;;;;;;;19.33;10.33;;;;;;;;;;4996746;28;20445;-90
2022/03/13 04:25:58;;;;;;;18.27;11.33;;;;;;;;;;4995823;28;21388;-87
2022/03/13 04:28:25;;;;;;;16.53;11.07;;;;;;;;;;4996947;28;20956;-89
2022/03/13 04:30:53;;;;;;;22.93;12.60;;;;;;;;;;4997343;28;21000;-89
2022/03/13 04:33:21;;;;;;;16.83;9.50;;;;;;;;;;4997013;28;20541;-91
2022/03/13 04:35:49;;;;;;;21.33;12.37;;;;;;;;;;4996706;28;20457;-87
2022/03/13 04:38:17;;;;;;;21.53;11.73;;;;;;;;;;4996583;28;20564;-87
2022/03/13 04:40:44;;;;;;;19.20;10.27;;;;;;;;;;4995548;28;20496;-89
2022/03/13 04:43:11;;;;;;;17.60;11.33;;;;;;;;;;4996783;28;20452;-90
2022/03/13 04:45:38;;;;;;;17.07;11.00;;;;;;;;;;4996854;28;20449;-87
2022/03/13 04:48:06;;;;;;;19.20;11.50;;;0.10;99.90;;;;;;4996529;28;20454;-89
2022/03/13 04:50:33;;;;;;;18.40;12.60;;;;;;;;;;4998674;28;20803;-89
2022/03/13 04:53:00;;;;;;;17.27;11.70;;;;;;;;;;4997422;28;20445;-88
2022/03/13 04:55:29;;;;;;;17.47;10.70;;;;;;;;;;4996032;28;20469;-88
2022/03/13 04:57:56;;;;;;;18.40;11.80;;;;;;;;;;4995248;28;20976;-87
2022/03/13 05:00:26;;;;;;;19.93;11.30;;;;;;;;;;4996040;28;20453;-87
2022/03/13 05:02:54;;;;;;;16.00;11.40;;;;;;;;;;4997787;28;20453;-88
2022/03/13 05:05:22;;;;;;;23.30;12.23;;;;;;;;;;4995851;28;20512;-88
2022/03/13 05:07:49;;;;;;;20.43;12.70;;;;;;;;;;4996071;28;20441;-89
2022/03/13 05:10:18;;;;;;;22.77;12.97;;;;;;;;;;4995318;28;20457;-90
2022/03/13 05:12:47;;;;;;;18.97;12.70;;;;;;;;;;4994783;28;21078;-88
2022/03/13 05:15:14;;;;;;;19.87;11.70;;;;;;;;;;4995455;28;20454;-90
2022/03/13 05:17:41;;;;;;;19.80;12.83;;;;;;;;;;4996077;28;20438;-87
2022/03/13 05:20:10;;;;;;;22.73;13.13;;;0.00;99.90;;;;;;4995759;28;20453;-87
2022/03/13 05:22:38;;;;;;;23.37;11.70;;;;;;;;;;4995599;28;20453;-90
2022/03/13 05:25:05;;;;;;;20.43;12.07;;;;;;;;;;4995410;28;20960;-89
2022/03/13 05:27:32;;;;;;;19.10;11.93;;;;;;;;;;4994421;28;20481;-89
2022/03/13 05:30:01;;;;;;;20.17;11.53;;;0.10;99.90;;;;;;4995478;28;20528;-88
2022/03/13 05:32:28;;;;;;;17.80;11.73;;;;;;;;;;4995551;28;20493;-86
2022/03/13 05:34:57;;;;;;;17.90;11.47;;;;;;;;;;4995570;28;20450;-90
2022/03/13 05:37:24;;;;;;;18.93;11.40;;;;;;;;;;4995318;28;20473;-89
2022/03/13 05:39:52;;;;;;;18.27;10.80;;;;;;;;;;4995143;28;20480;-89
2022/03/13 05:42:24;;;;;;;17.10;11.40;;;;;;;;;;4994297;28;20465;-90
2022/03/13 05:44:51;;;;;;;21.90;12.03;;;;;;;;;;4995096;28;20512;-90
2022/03/13 05:47:21;;;;;;;19.20;11.20;;;;;;;;;;4994556;28;20504;-87
2022/03/13 05:49:49;;;;;;;23.13;12.47;;;;;;;;;;4994978;28;20453;-88
2022/03/13 05:52:16;;;;;;;17.80;11.23;;;;;;;;;;4994823;28;20490;-90
2022/03/13 05:54:44;;;;;;;20.37;11.57;;;;;;;;;;4994921;28;20460;-86
2022/03/13 05:57:11;;;;;;;22.00;13.07;;;;;;;;;;4993812;28;20460;-88
2022/03/13 05:59:38;;;;;;;17.20;11.90;;;;;;;;;;4994428;28;21019;-89
2022/03/13 06:02:06;;;;;;;19.43;12.13;;;;;;;;;;4994557;28;20453;-87
2022/03/13 06:04:36;;;;;;;19.97;11.80;;;0.10;99.90;;;;;;4994880;28;20445;-87
2022/03/13 06:07:04;;;;;;;17.43;11.37;;;;;;;;;;4994333;28;20453;-87
2022/03/13 06:09:32;;;;;;;22.77;12.40;;;;;;;;;;4994415;28;20544;-87
2022/03/13 06:11:59;;;;;;;19.47;12.90;;;0.60;99.90;;;;;;4992924;28;20901;-87
2022/03/13 06:14:27;;;;;;;19.23;12.90;;;;;;;;;;4994651;28;20437;-88
2022/03/13 06:16:54;;;;;;;23.47;13.20;;;;;;;;;;4994025;28;20511;-87
2022/03/13 06:19:21;;;;;;;19.40;12.17;;;;;;;;;;4994460;28;20488;-86
2022/03/13 06:21:49;;;;;;;21.40;12.33;;;1.20;99.90;;;;;;4994257;28;20456;-87
2022/03/13 06:24:18;;;;;;;18.60;12.60;;;;;;;;;;4994021;28;20449;-87
2022/03/13 06:26:45;;;;;;;20.90;13.47;;;;;;;;;;4993057;28;20515;-88
2022/03/13 06:29:14;;;;;;;20.90;13.47;;;;;;;;;;4994137;28;20453;-87
2022/03/13 06:31:41;;;;;;;27.70;14.03;;;;;;;;;;4993928;28;20535;-87
2022/03/13 06:34:08;;;;;;;16.73;11.63;;;;;;;;;;4993572;28;20499;-88
2022/03/13 06:36:37;;;;;;;18.63;12.77;;;;;;;;;;4995914;28;20955;-88
2022/03/13 06:39:06;;;;;;;22.27;13.00;;;;;;;;;;4993756;28;20902;-88
2022/03/13 06:41:33;;;;;;;18.87;13.53;;;;;;;;;;4993203;28;20487;-89
2022/03/13 06:44:00;;;;;;;19.17;13.17;;;;;;;;;;4993964;28;20461;-88
2022/03/13 06:46:27;;;;;;;19.37;14.93;;;;;;;;;;4993944;28;20943;-88
2022/03/13 06:48:54;;;;;;;25.90;14.30;;;;;;;;;;4993692;28;20852;-89
2022/03/13 06:51:22;;;;;;;17.70;13.07;;;;;;;;;;4994991;28;20485;-88
2022/03/13 06:53:49;;;;;;;22.00;15.33;;;;;;;;;;4994061;28;20816;-89
2022/03/13 06:56:18;;;;;;;24.13;15.00;;;4.10;99.90;;;;;;4993124;28;20457;-89
2022/03/13 06:58:45;;;;;;;20.00;14.33;;;;;;;;;;4993516;28;20476;-87
2022/03/13 07:01:12;;;;;;;24.30;16.30;;;;;;;;;;4993915;28;20497;-86
2022/03/13 07:03:39;;;;;;;27.03;18.60;;;;;;;;;;4995409;28;20449;-87
2022/03/13 07:06:07;;;;;;;24.10;15.50;;;;;;;;;;4996426;28;20462;-88
2022/03/13 07:08:34;;;;;;;25.43;15.67;;;;;;;;;;4993824;28;20449;-88
2022/03/13 07:11:01;;;;;;;20.60;14.90;;;;;;;;;;4992833;28;20473;-89
2022/03/13 07:13:32;;;;;;;22.13;16.30;;;6.50;97.20;;;;;;4993745;28;20820;-89
2022/03/13 07:16:00;;;;;;;22.63;15.57;;;6.10;97.60;;;;;;4994031;28;20459;-87
2022/03/13 07:18:27;;;;;;;22.13;16.30;;;;;;;;;;4993945;28;20454;-90
2022/03/13 07:20:55;;;;;;;20.03;16.07;;;;;;;;;;4993743;28;20441;-89
2022/03/13 07:23:22;;;;;;;21.33;15.03;;;;;;;;;;4993636;28;20449;-87
2022/03/13 07:25:50;;;;;;;20.33;16.30;;;;;;;;;;4992832;28;20484;-88
2022/03/13 07:28:17;;;;;;;23.97;16.50;;;;;;;;;;4994194;28;20445;-92
2022/03/13 07:30:45;;;;;;;21.83;16.23;;;7.90;93.90;;;;;;4996969;28;20440;-90
2022/03/13 07:33:12;;;;;;;24.43;16.07;;;;;;;;;;4997968;28;20533;-88
2022/03/13 07:35:40;;;;;;;17.80;15.03;;;;;;;;;;4997729;28;20803;-92
2022/03/13 07:38:08;;;;;;;21.67;17.03;;;;;;;;;;4997694;28;20445;-91
2022/03/13 07:40:35;;;;;;;22.77;17.57;;;;;;;;;;4996921;28;21076;-88
2022/03/13 07:43:03;;;;;;;22.30;15.97;;;;;;;;;;4997204;28;20449;-90
2022/03/13 07:45:30;;;;;;;23.30;17.70;;;;;;;;;;4997573;28;20456;-91
2022/03/13 07:47:59;;;;;;;27.77;18.50;;;9.50;89.80;;;;;;4998796;28;20455;-93
2022/03/13 07:50:27;;;;;;;24.50;17.10;;;9.50;89.80;;;;;;4998180;28;20445;-93
2022/03/13 07:52:54;;;;;;;22.07;16.97;;;;;;;;;;4997421;28;20496;-92
2022/03/13 07:55:22;;;;;;;23.37;17.10;;;;;;;;;;4997644;28;21029;-92
2022/03/13 07:57:49;;;;;;;24.00;17.67;;;;;;;;;;4997057;28;20512;-88
2022/03/13 08:00:17;;;;;;;26.10;17.67;;;9.90;90.80;;;;;;4996938;28;20789;-91
2022/03/13 08:02:46;;;;;;;20.10;17.27;;;;;;;;;;4997423;28;20461;-90
2022/03/13 08:05:15;;;;;;;26.03;17.27;;;;;;;;;;4997588;28;20491;-92
2022/03/13 08:07:42;;;;;;;22.43;18.10;;;;;;;;;;4997483;28;20430;-92
2022/03/13 08:10:10;;;;;;;25.17;18.70;;;;;;;;;;4997413;28;20832;-94
2022/03/13 08:12:38;;;;;;;19.87;16.33;;;;;;;;;;4996911;28;20580;-92
2022/03/13 08:15:06;;;;;;;20.63;18.17;;;;;;;;;;4997358;28;20545;-94
2022/03/13 08:17:33;;;;;;;32.93;18.70;;;;;;;;;;5000928;28;20945;-93
2022/03/13 08:20:00;;;;;;;20.97;18.03;;;;;;;;;;4997613;28;20460;-93
2022/03/13 08:22:29;;;;;;;22.60;19.20;;;;;;;;;;4997278;28;20448;-92
2022/03/13 08:24:56;;;;;;;25.87;19.13;;;;;;;;;;5005462;28;20456;-91
2022/03/13 08:27:23;;;;;;;23.97;18.30;;;;;;;;;;5009264;28;20454;-89
2022/03/13 08:29:50;;;;;;;23.77;19.07;;;;;;;;;;5003534;28;20445;-87
2022/03/13 08:32:17;;;;;;;19.23;16.97;;;;;;;;;;5002753;28;20497;-89
2022/03/13 08:34:45;;;;;;;22.50;18.60;;;;;;;;;;4997014;28;20956;-86
2022/03/13 08:37:13;;;;;;;23.70;19.63;;;;;;;;;;4996050;28;20460;-85
2022/03/13 08:39:41;;;;;;;25.20;18.43;;;;;;;;;;4997434;28;20493;-93
2022/03/13 08:42:09;;;;;;;27.53;19.13;;;;;;;;;;4998882;28;20787;-84
2022/03/13 08:44:36;;;;;;;25.17;19.33;;;;;;;;;;4996135;28;20452;-86
2022/03/13 08:47:04;;;;;;;24.07;19.60;;;;;;;;;;4997302;28;20457;-86
2022/03/13 08:49:31;;;;;;;21.50;18.47;;;;;;;;;;4999568;28;20456;-88
2022/03/13 08:51:58;;;;;;;19.33;17.33;;;;;;;;;;5013316;28;20480;-86
2022/03/13 08:54:25;;;;;;;21.23;18.93;;;;;;;;;;5015900;28;20444;-86
2022/03/13 08:56:54;;;;;;;22.03;18.47;;;13.90;70.80;;;;;;5000923;28;20929;-86
2022/03/13 08:59:21;;;;;;;22.43;18.40;;;;;;;;;;4999573;28;20459;-86
2022/03/13 09:01:48;;;;;;;21.63;19.33;;;;;;;;;;5014916;28;20436;-90
2022/03/13 09:04:16;;;;;;;20.73;17.77;;;;;;;;;;5014876;28;20444;-86
2022/03/13 09:06:43;;;;;;;22.80;18.90;;;;;;;;;;5014841;28;20456;-89
2022/03/13 09:09:12;;;;;;;23.33;18.17;;;;;;;;;;5014932;28;20472;-87
2022/03/13 09:11:39;;;;;;;29.40;18.17;;;14.70;67.10;;;;;;5013440;28;20788;-85
2022/03/13 09:14:08;;;;;;;21.97;19.30;;;;;;;;;;5014593;28;20556;-88
2022/03/13 09:16:41;;;;;;;27.53;19.03;;;;;;;;;;5014641;28;20459;-84
2022/03/13 09:19:08;;;;;;;27.30;18.93;;;;;;;;;;5014433;28;20468;-85
2022/03/13 09:21:38;;;;;;;21.50;19.23;;;;;;;;;;5014554;28;20455;-85
2022/03/13 09:24:05;;;;;;;27.70;19.17;;;;;;;;;;5015313;28;20551;-87
2022/03/13 09:26:34;;;;;;;23.83;19.43;;;;;;;;;;5014628;28;20475;-88
2022/03/13 09:29:01;;;;;;;25.83;19.67;;;;;;;;;;5014708;28;20963;-89
2022/03/13 09:31:30;;;;;;;23.73;19.27;;;16.30;66.20;;;;;;5015356;28;20912;-88
2022/03/13 09:33:57;;;;;;;27.73;18.33;;;;;;;;;;5014622;28;20496;-91
2022/03/13 09:36:25;;;;;;;22.40;19.50;;;;;;;;;;5015573;28;20948;-91
2022/03/13 09:38:52;;;;;;;22.00;18.80;;;;;;;;;;5015708;28;20488;-94
2022/03/13 09:41:19;;;;;;;22.37;19.20;;;;;;;;;;5014641;28;20425;-92
2022/03/13 09:43:46;;;;;;;22.13;19.73;;;;;;;;;;5009916;28;20470;-93
2022/03/13 09:46:16;;;;;;;23.47;20.23;;;17.30;59.80;;;;;;4995874;28;20800;-91
2022/03/13 09:48:44;;;;;;;22.33;19.70;;;17.00;60.70;;;;;;4991861;28;20503;-92
2022/03/13 09:51:11;;;;;;;24.93;20.10;;;;;;;;;;4995349;28;20511;-92
2022/03/13 09:53:39;;;;;;;20.93;18.73;;;17.10;59.90;;;;;;4994939;28;20476;-92
2022/03/13 09:56:06;;;;;;;22.57;19.30;;;17.70;59.20;;;;;;4993487;28;20449;-93
2022/03/13 09:58:34;;;;;;;22.43;19.97;;;;;;;;;;5006720;28;20471;-90
2022/03/13 10:01:01;;;;;;;23.23;19.47;;;17.20;58.50;;;;;;5014741;28;20951;-93
2022/03/13 10:03:28;;;;;;;21.73;19.27;;;;;;;;;;5014891;28;20445;-92
2022/03/13 10:05:59;;;;;;;21.10;18.10;;;18.90;62.50;;;;;;5015910;28;20448;-90
2022/03/13 10:08:29;;;;;;;25.67;19.60;;;16.80;83.00;;;;;;5015073;28;20472;-91
2022/03/13 10:10:56;;;;;;;22.93;19.17;;;;;;;;;;5014211;28;20491;-91
2022/03/13 10:13:41;;;;;;;19.77;17.73;;;17.30;61.60;;;;;;5015380;28;20963;-93
2022/03/13 10:16:09;;;;;;;21.97;19.30;;;18.80;56.70;;;;;;5015408;28;20439;-91
2022/03/13 10:18:36;;;;;;;22.10;19.60;;;18.60;55.80;;;;;;5014546;28;20440;-92
2022/03/13 10:21:13;;;;;;;21.10;18.90;;;18.50;90.70;;;;;;5015625;28;20452;-91
2022/03/13 10:23:41;;;;;;;24.47;19.93;;;;;;;;;;5014596;28;20428;-91
2022/03/13 10:26:08;;;;;;;25.03;20.63;;;19.00;54.00;;;;;;5013613;28;20436;-92
2022/03/13 10:28:37;;;;;;;22.93;19.80;;;19.30;52.70;;;;;;5014287;28;20451;-91
2022/03/13 10:31:13;;;;;;;22.07;19.77;;;18.10;76.40;;;;;;5014286;28;20463;-91
2022/03/13 10:34:00;;;;;;;25.80;21.53;;;18.30;88.70;;;;;;5013935;28;20503;-90
2022/03/13 10:36:34;;;;;;;22.33;19.93;;;19.30;78.00;;;;;;5011295;28;20472;-93
2022/03/13 10:39:03;;;;;;;22.33;19.70;;;19.70;51.70;;;;;;5014845;28;20498;-94
2022/03/13 10:41:43;;;;;;;23.27;19.90;;;19.50;67.10;;;;;;5013958;28;20424;-88
2022/03/13 10:44:14;;;;;;;26.53;21.27;;;19.90;74.60;;;;;;5013634;28;20452;-90
2022/03/13 10:46:42;;;;;;;23.97;20.17;;;;;;;;;;5015176;28;20486;-84
2022/03/13 10:49:09;;;;;;;21.70;19.33;;;20.10;50.50;;;;;;5013404;28;20444;-86
2022/03/13 10:51:40;;;;;;;24.47;20.97;;;20.20;50.30;;;;;;5013669;28;20460;-87
2022/03/13 10:54:08;;;;;;;25.27;20.83;;;20.60;49.60;;;;;;5013660;28;20539;-88
2022/03/13 10:56:35;;;;;;;23.83;21.30;;;20.60;64.80;;;;;;5012280;28;20452;-89
2022/03/13 10:59:17;;;;;;;24.83;21.07;;;20.10;74.20;;;;;;5015204;28;20789;-88
2022/03/13 11:01:44;;;;;;;22.80;20.20;;;;;;;;;;5013368;28;20464;-89
2022/03/13 11:04:15;;;;;;;24.80;20.90;;;;;;;;;;5016498;28;20444;-88
2022/03/13 11:06:43;;;;;;;23.40;20.80;;;19.80;50.30;;;;;;5018062;28;20448;-90
2022/03/13 11:09:11;;;;;;;28.90;21.43;;;;;;;;;;5019694;28;20456;-90
2022/03/13 11:11:39;;;;;;;29.50;20.87;;;;;;;;;;5016202;28;20459;-90
2022/03/13 11:14:08;;;;;;;28.50;24.87;;;;;;;;;;5017212;28;20502;-90
2022/03/13 11:16:35;;;;;;;27.13;22.37;;;;;;;;;;5019541;28;20459;-91
2022/03/13 11:19:06;;;;;;;24.07;20.67;;;20.00;51.30;;;;;;5019233;28;20436;-90
2022/03/13 11:25:05;;;;;;;23.13;20.50;;;19.90;71.30;;;;;;5027381;28;20506;-88
2022/03/13 11:27:34;;;;;;;28.03;20.50;;;19.00;49.60;;;;;;5017782;28;20562;-89
2022/03/13 11:30:01;;;;;;;25.47;20.67;;;;;;;;;;5018374;28;20936;-91
2022/03/13 11:32:32;;;;;;;26.17;21.93;;;17.50;52.50;;;;;;5018540;28;20459;-88
2022/03/13 11:35:33;;;;;;;24.00;21.40;;;18.00;51.60;;;;;;5018704;28;21067;-88
2022/03/13 11:38:30;;;;;;;25.40;21.93;;;18.40;76.70;;;;;;4999343;28;20437;-91
2022/03/13 11:40:58;;;;;;;26.30;21.50;;;19.10;50.00;;;;;;4938411;29;20599;-89
2022/03/13 11:43:34;;;;;;;24.03;20.67;;;19.40;50.20;;;;;;4985950;28;20461;-90
2022/03/13 11:46:01;;;;;;;26.37;19.27;;;;;;;;;;4997579;28;20963;-90
2022/03/13 11:48:38;;;;;;;25.73;20.00;;;18.60;51.00;;;;;;4995711;28;20507;-89
2022/03/13 11:51:07;;;;;;;26.77;20.90;;;;;;;;;;4998277;28;20475;-90
2022/03/13 11:53:46;;;;;;;24.27;20.90;;;19.00;52.40;;;;;;5002876;28;20502;-91
2022/03/13 11:56:26;;;;;;;25.03;18.70;;;18.50;49.70;;;;;;4997135;28;20476;-91
2022/03/13 11:58:54;;;;;;;25.33;20.80;;;18.60;51.50;;;;;;4998766;28;20457;-93
2022/03/13 12:01:32;;;;;;;26.00;19.73;;;18.80;50.30;;;;;;4998515;28;20461;-93
2022/03/13 12:04:28;;;;;;;26.27;20.37;;;18.30;79.30;;;;;;4998062;28;20476;-90
2022/03/13 12:06:57;;;;;;;22.40;19.47;;;18.80;50.50;;;;;;4996529;28;20471;-89
2022/03/13 12:09:30;;;;;;;25.90;19.37;;;19.40;49.60;;;;;;4999860;28;20434;-92
2022/03/13 12:12:04;;;;;;;25.10;19.70;;;19.40;49.20;;;;;;5004383;28;20445;-90
2022/03/13 12:15:02;;;;;;;25.37;20.00;;;19.10;49.40;;;;;;5014800;28;20483;-90
2022/03/13 12:18:06;;;;;;;25.77;20.20;;;19.30;49.30;;;;;;5010385;28;20476;-91
2022/03/13 12:23:39;;;;;;;24.30;19.50;;;19.40;49.50;;;;;;5013666;28;20457;-91
2022/03/13 12:26:15;;;;;;;24.53;20.33;;;19.20;48.50;;;;;;5001482;28;20549;-90
2022/03/13 12:28:44;;;;;;;23.90;19.03;;;;;;;;;;5008793;28;20548;-90
2022/03/13 12:31:12;;;;;;;23.73;20.00;;;;;;;;;;5008026;28;20438;-88
2022/03/13 12:33:44;;;;;;;26.60;19.90;;;;;;;;;;5002590;28;20492;-93
2022/03/13 12:36:12;;;;;;;25.97;21.33;;;;;;;;;;5009353;28;20485;-93
2022/03/13 12:38:43;;;;;;;25.30;18.43;;;;;;;;;;4998517;28;20442;-94
2022/03/13 12:41:13;;;;;;;25.90;19.13;;;19.10;48.70;;;;;;4991134;28;20505;-92
2022/03/13 12:43:53;;;;;;;23.53;18.70;;;19.60;47.80;;;;;;4987319;28;20428;-93
2022/03/13 12:46:22;;;;;;;25.00;19.20;;;18.90;47.40;;;;;;4978618;28;20454;-93
2022/03/13 12:48:55;;;;;;;26.60;19.23;;;18.50;48.30;;;;;;4979312;28;20523;-92
2022/03/13 12:51:47;;;;;;;25.77;20.83;;;18.30;72.70;;;;;;4979187;28;20458;-91
2022/03/13 12:54:16;;;;;;;23.87;18.60;;;18.60;48.10;;;;;;4972395;28;20502;-93
2022/03/13 12:56:47;;;;;;;25.73;20.47;;;19.20;47.80;;;;;;4977287;28;20458;-90
2022/03/13 12:59:27;;;;;;;24.07;19.07;;;19.70;50.50;;;;;;4991637;28;20973;-88
2022/03/13 13:02:10;;;;;;;25.60;19.53;;;19.70;83.20;;;;;;4993039;28;20545;-90
2022/03/13 13:04:38;;;;;;;19.90;15.60;;;20.60;49.90;;;;;;4977837;28;21009;-93
2022/03/13 13:07:06;;;;;;;24.93;18.60;;;;;;;;;;4980647;28;20454;-93
2022/03/13 13:09:36;;;;;;;28.10;18.87;;;19.70;46.10;;;;;;4978015;28;20458;-90
2022/03/13 13:12:03;;;;;;;23.83;17.70;;;19.60;46.60;;;;;;4976798;28;20458;-88
2022/03/13 13:14:32;;;;;;;23.67;18.80;;;20.40;46.10;;;;;;4976873;28;20494;-90
2022/03/13 13:17:05;;;;;;;21.40;17.60;;;20.80;46.50;;;;;;4977297;28;20461;-91
2022/03/13 13:19:37;;;;;;;21.57;18.03;;;21.10;46.50;;;;;;4977284;28;20450;-90
2022/03/13 13:22:05;;;;;;;22.93;17.13;;;;;;;;;;4978850;28;20491;-91
2022/03/13 13:24:34;;;;;;;21.00;17.60;;;20.70;46.50;;;;;;4980515;28;20462;-92
2022/03/13 13:27:02;;;;;;;22.10;17.20;;;;;;;;;;4976863;28;20935;-92
2022/03/13 13:29:36;;;;;;;24.40;17.40;;;19.80;45.80;;;;;;4975622;28;20537;-90
2022/03/13 13:32:23;;;;;;;20.77;17.13;;;21.10;75.90;;;;;;4976024;28;20516;-89
2022/03/13 13:35:08;;;;;;;20.87;17.03;;;21.60;77.80;;;;;;4975990;28;20873;-91
2022/03/13 13:37:36;;;;;;;19.43;16.53;;;21.60;45.60;;;;;;4976074;28;20450;-93
2022/03/13 13:40:09;;;;;;;21.43;17.03;;;21.40;46.10;;;;;;4985388;28;20477;-90
2022/03/13 13:42:37;;;;;;;22.20;16.97;;;21.40;45.20;;;;;;4997789;28;20452;-90
2022/03/13 13:45:36;;;;;;;19.77;16.33;;;20.60;43.70;;;;;;5007931;28;20449;-91
2022/03/13 13:48:23;;;;;;;20.30;16.03;;;21.20;45.40;;;;;;5006954;28;20516;-91
2022/03/13 13:51:16;;;;;;;21.90;18.07;;;20.90;44.40;;;;;;5004414;28;20457;-89
2022/03/13 13:53:48;;;;;;;19.67;16.00;;;20.50;43.40;;;;;;5000696;28;20499;-90
2022/03/13 13:56:15;;;;;;;20.07;16.53;;;;;;;;;;5000911;28;20446;-92